Aeroporto :
LOGIN :

Iscrizione | Disclaimer

   EN    FR    IT 

 










Sommario :    VFR   VFR Marginale   IFR   IFR Intensivo   IFR Molto Intensivo
Visibilità : 
Base nubi : 
>= 8 km
>= 3000ft
5 / 8 km
1000 / 3000 ft
1500m / 5 km
500 / 1000 ft
800 / 1500m
200 / 500 ft
< 800m
< 200 ft
Simboli :   Temporali  Nebbia  Neve Forte  Precipitazioni Forti  Vento > 20 kt
SIGMETs :   Varie  Temporali  Ghiacco  Turbolenza  Onda orograficha  Ceneri Vulcaniche






- Altitudine del aeroporto : 46 ft
- Codice IATA : SNN


EINN - Shannon

ULTIMO METAR :
  • 201200Z 12007KT 9999 FEW010 SCT040 BKN100 09/07 Q0998 NOSIG

METARs OBSOLETI :
  • 201130Z 11006KT 9999 FEW010 SCT060 BKN100 09/07 Q0998 NOSIG
  • 201100Z 12006KT 9999 FEW010 SCT040 BKN080 09/07 Q0998 NOSIG
  • 201030Z 12007KT 9999 FEW010 SCT040 BKN080 08/07 Q0998 NOSIG
  • 201000Z 11009KT 9999 FEW010 FEW018CB SCT040 BKN120 08/07 Q0998 NOSIG
  • 200930Z 11011KT 9999 FEW009 FEW018CB BKN044 08/06 Q0998 NOSIG

TAF TAF EINN
Valido dal 20 a 12 ore il 21 a 12 ore UTC


201100Z 2012/2112 13008KT 9999 FEW014 BKN025
TEMPO 2012/2014 5000 -SHRA BKN014 SCT020CB
BECMG 2013/2015 10009KT
TEMPO 2014/2101 4000 SHRA BKN010 SCT020CB
TEMPO 2101/2104 7000 -SHRA SCT012 SCT020CB
PROB40
TEMPO 2101/2103 4000 SHRA BKN010
BECMG 2109/2111 07010KT



MetMap, La meteo Aeronautica in un colpo d'occhio ! - Copyright ORBIFLY Dicembre 2007 - Disclaimer

ORBIFLY MET'MAP TEAM :

Programmazione e sviluppo : Alexandra Zaïnal
Concezione e sviluppo : Baudouin d'Aumeries
Co-Programmazione e sviluppo : Marc-Olivier Méhu
Supporto tecnico e logistico : Manuel Goepfert
Aiuto per la traduzione : Arnaldo La Scala

Contatto : metmap@orbifly.com




FONTI E CREDITI :

   NOAA